Date,TemperatureHighF,TemperatureAvgF,TemperatureLowF,DewpointHighF,DewpointAvgF,DewpointLowF,HumidityHigh,HumidityAvg,HumidityLow,PressureMaxIn,PressureMinIn,WindSpeedMaxMPH,WindSpeedAvgMPH,GustSpeedMaxMPH,PrecipitationSumIn
2013-1-1,25.0,14.7,7.0,17.0,9.8,3.0,93,82,49,0.00,40.00,1,0,5,0.01
2013-1-2,16.0,10.3,3.0,11.0,3.4,-4.0,92,74,54,0.00,40.00,2,1,6,0.01
2013-1-3,41.0,25.1,6.0,10.0,0.2,-7.0,63,35,24,0.00,40.00,2,1,4,0.01
2013-1-4,38.0,28.9,19.0,10.0,2.2,-4.0,48,32,23,0.00,40.00,2,1,4,0.01
2013-1-5,32.0,19.2,6.0,14.0,1.7,-15.0,86,51,20,0.00,40.00,1,1,4,0.00
2013-1-6,42.0,32.0,27.0,14.0,0.7,-17.0,54,29,11,0.00,40.00,2,1,7,0.01
2013-1-7,33.0,27.2,18.0,17.0,12.0,8.0,69,53,35,0.00,40.00,1,1,7,0.00
2013-1-8,28.0,25.2,22.0,16.0,13.8,10.0,73,61,49,0.00,40.00,2,2,9,0.00
2013-1-9,47.0,37.4,28.0,18.0,10.3,1.0,64,35,19,0.00,40.00,3,2,9,0.01
2013-1-10,41.0,34.7,15.0,20.0,11.0,2.0,83,41,22,0.00,40.00,3,1,9,0.00
2013-1-11,12.0,1.5,-4.0,11.0,-1.8,-9.0,96,85,79,0.00,40.00,1,0,4,0.00
2013-1-12,4.0,-2.3,-7.0,-2.0,-6.5,-11.0,85,82,78,0.00,40.00,1,0,2,0.00
2013-1-13,2.0,-6.3,-13.0,-5.0,-14.6,-99.9,82,76,72,0.00,40.00,1,-43,3,0.00
2013-1-14,9.0,-0.6,-12.0,5.0,-7.8,-16.0,82,72,51,0.00,40.00,1,0,7,0.00
2013-1-15,32.0,23.9,12.0,27.0,19.1,7.0,94,82,70,0.00,40.00,2,1,6,0.02
2013-1-16,35.0,29.2,24.0,19.0,9.3,-99.9,73,53,38,0.00,40.00,2,-44,7,0.00
2013-1-17,39.0,28.5,19.0,14.0,4.8,-99.9,77,45,28,0.00,40.00,2,-42,6,0.00
2013-1-18,41.0,35.0,31.0,7.0,0.5,-99.9,34,27,21,0.00,40.00,2,-40,9,0.01
2013-1-19,38.0,31.0,25.0,8.0,-3.0,-99.9,40,27,19,0.00,40.00,1,-47,6,0.00
2013-1-20,32.0,24.0,13.0,17.0,9.6,-1.0,94,57,27,0.00,40.00,2,1,9,0.00
2013-1-21,38.0,30.8,22.0,14.0,8.4,-1.0,66,40,23,0.00,40.00,2,1,7,0.01
2013-1-22,43.0,35.4,24.0,1.0,-4.9,-11.0,29,18,12,0.00,40.00,2,1,6,0.00
2013-1-23,46.0,38.9,32.0,5.0,-2.2,-8.0,28,17,11,0.00,40.00,1,1,6,0.01
2013-1-24,41.0,35.6,27.0,21.0,12.4,-5.0,72,42,14,0.00,40.00,3,1,10,0.00
2013-1-25,44.0,33.6,29.0,21.0,16.6,11.0,64,50,36,0.00,40.00,2,1,6,0.00
2013-1-26,44.0,33.7,28.0,24.0,20.2,17.0,71,58,41,0.00,40.00,2,1,7,0.00
2013-1-27,33.0,25.8,18.0,24.0,20.0,17.0,99,80,57,0.00,40.00,1,0,4,0.01
2013-1-28,18.0,13.0,2.0,17.0,11.0,0.0,96,91,86,0.00,40.00,0,0,2,0.01
2013-1-29,12.0,4.6,-3.0,9.0,1.3,-7.0,89,86,81,0.00,40.00,0,-42,0,0.00
2013-1-30,22.0,14.8,4.0,19.0,11.6,-1.0,93,87,80,0.00,40.00,1,0,4,0.01
2013-1-31,26.0,22.6,11.0,21.0,18.3,9.0,94,84,75,0.00,40.00,2,1,7,0.01
2013-2-1,28.0,23.9,18.0,25.0,18.7,13.0,96,81,67,0.00,40.00,2,1,6,0.01
2013-2-2,34.0,24.7,16.0,17.0,14.1,10.0,86,65,42,0.00,40.00,1,1,6,0.00
2013-2-3,39.0,29.7,20.0,14.0,8.0,3.0,68,42,23,0.00,40.00,2,1,6,0.01
2013-2-4,34.0,29.1,26.0,18.0,14.3,9.0,63,54,46,0.00,40.00,2,1,6,0.00
2013-2-5,39.0,28.7,15.0,23.0,17.2,12.0,92,63,49,0.00,40.00,2,1,7,0.00
2013-2-6,31.0,24.6,15.0,23.0,15.8,11.0,94,71,43,0.00,40.00,1,0,5,0.00
2013-2-7,38.0,23.4,6.0,11.0,-0.8,-11.0,90,46,14,0.00,40.00,2,1,5,0.00
2013-2-8,32.0,24.7,17.0,7.0,-0.6,-9.0,62,35,18,0.00,40.00,1,1,5,0.01
2013-2-9,24.0,18.3,15.0,19.0,14.7,8.0,95,86,68,0.00,40.00,1,0,5,0.00
2013-2-10,15.0,10.6,0.0,14.0,7.7,-4.0,95,88,76,0.00,40.00,1,0,4,0.01
2013-2-11,24.0,9.2,-3.0,6.0,-2.1,-8.0,85,63,31,0.00,40.00,1,1,4,0.00
2013-2-12,29.0,18.7,8.0,17.0,10.1,-3.0,88,70,45,0.00,40.00,1,1,4,0.01
2013-2-13,31.0,24.0,19.0,21.0,16.1,13.0,97,73,50,0.00,40.00,2,1,8,0.01
2013-2-14,19.0,13.1,9.0,17.0,8.7,5.0,94,83,64,0.00,40.00,1,0,6,0.00
2013-2-15,27.0,19.0,11.0,20.0,14.1,8.0,94,82,57,0.00,40.00,1,-41,5,0.02
2013-2-16,42.0,30.6,22.0,22.0,16.9,9.0,87,59,35,0.00,40.00,2,1,6,0.01
2013-2-17,34.0,24.4,15.0,23.0,12.9,2.0,96,67,27,0.00,40.00,2,1,6,0.00
2013-2-18,20.0,12.6,2.0,13.0,7.5,-1.0,93,80,53,0.00,40.00,1,0,6,0.00
2013-2-19,41.0,21.6,0.0,7.0,-2.1,-12.0,80,43,14,0.00,40.00,2,1,6,0.01
2013-2-20,33.0,20.8,9.0,9.0,6.3,3.0,80,55,31,0.00,40.00,1,0,3,0.01
2013-2-21,24.0,13.2,5.0,17.0,7.1,0.0,91,77,55,0.00,40.00,1,-43,4,0.00
2013-2-22,26.0,14.0,3.0,10.0,-5.1,-99.9,90,60,39,0.00,40.00,2,-82,6,0.00
2013-2-23,26.0,21.3,14.0,22.0,9.7,-99.9,95,73,59,0.00,40.00,1,-44,6,0.01
2013-2-24,26.0,15.0,8.0,15.0,-3.5,-99.9,95,76,68,0.00,40.00,1,-133,3,0.01
2013-2-25,39.0,21.9,7.0,25.0,2.7,-99.9,90,64,40,0.00,40.00,1,-86,5,0.01
2013-2-26,20.0,16.0,8.0,18.0,12.6,5.0,95,86,72,0.00,40.00,1,0,4,0.01
2013-2-27,27.0,13.5,1.0,10.0,5.1,-2.0,90,71,38,0.00,40.00,2,1,5,0.00
2013-2-28,28.0,20.2,14.0,15.0,8.3,5.0,78,60,44,0.00,40.00,2,1,7,0.00
2013-3-1,38.0,30.0,13.0,30.0,20.0,-1.0,89,67,36,0.00,40.00,1,1,5,0.00
2013-3-2,50.0,36.9,28.0,24.0,20.5,16.0,72,54,26,0.00,40.00,2,1,6,0.00
2013-3-3,41.0,32.0,15.0,27.0,21.1,14.0,95,66,47,0.00,40.00,2,1,7,0.00
2013-3-4,15.0,10.0,1.0,11.0,0.3,-10.0,87,65,45,0.00,40.00,2,1,9,0.00
2013-3-5,38.0,20.7,5.0,2.0,-2.5,-11.0,75,41,14,0.00,40.00,2,1,6,0.01
2013-3-6,45.0,33.3,20.0,20.0,10.2,2.0,55,39,21,0.00,40.00,2,2,7,0.01
2013-3-7,34.0,28.9,20.0,27.0,13.9,6.0,86,55,34,0.00,40.00,1,1,6,0.00
2013-3-8,40.0,29.9,18.0,26.0,21.7,13.0,89,73,50,0.00,40.00,1,1,5,0.00
2013-3-9,27.0,21.6,12.0,23.0,17.5,10.0,94,84,70,0.00,40.00,1,1,6,0.00
2013-3-10,44.0,25.9,10.0,17.0,8.3,1.0,88,51,26,0.00,40.00,1,-38,5,0.01
2013-3-11,30.0,22.8,12.0,24.0,16.5,7.0,96,79,38,0.00,40.00,3,1,9,0.01
2013-3-12,38.0,21.7,4.0,19.0,11.2,1.0,93,69,27,0.00,40.00,2,1,6,0.01
2013-3-13,49.0,39.3,32.0,25.0,22.6,19.0,66,52,35,0.00,40.00,2,2,7,0.01
2013-3-14,52.0,42.6,33.0,26.0,22.9,19.0,64,47,31,0.00,40.00,2,1,7,0.00
2013-3-15,49.0,41.2,30.0,27.0,20.5,16.0,84,45,30,0.00,40.00,2,1,8,0.00
2013-3-16,35.0,29.3,23.0,28.0,25.3,22.0,97,85,65,0.00,40.00,1,0,5,0.00
2013-3-17,32.0,24.1,15.0,26.0,16.1,4.0,93,73,44,0.00,40.00,2,1,8,0.00
2013-3-18,23.0,16.7,8.0,13.0,5.2,0.0,88,62,38,0.00,40.00,2,1,8,0.00
2013-3-19,20.0,15.4,7.0,16.0,9.6,1.0,90,78,56,0.00,40.00,2,1,7,0.00
2013-3-20,42.0,31.6,10.0,24.0,13.1,-3.0,70,47,28,0.00,40.00,2,1,7,0.01
2013-3-21,35.0,24.1,13.0,25.0,19.6,11.0,100,84,48,0.00,40.00,1,-31,4,0.01
2013-3-22,18.0,12.4,5.0,13.0,8.7,3.0,92,85,69,0.00,40.00,1,0,5,0.00
2013-3-23,15.0,4.5,-4.0,9.0,0.2,-8.0,88,82,76,0.00,40.00,1,-43,4,0.01
2013-3-24,10.0,5.0,-4.0,5.0,0.1,-7.0,87,80,67,0.00,40.00,2,0,5,0.00
2013-3-25,30.0,16.7,0.0,13.0,2.8,-5.0,85,56,33,0.00,40.00,1,-34,4,0.02
2013-3-26,35.0,24.8,8.0,8.0,4.4,-2.0,71,44,27,0.00,40.00,2,1,4,0.01
2013-3-27,43.0,29.1,17.0,19.0,14.5,8.0,77,56,33,0.00,40.00,2,-66,7,0.00
2013-3-28,46.0,34.0,22.0,23.0,19.4,14.0,84,57,31,0.00,40.00,2,1,9,0.00
2013-3-29,46.0,39.2,28.0,32.0,23.0,16.0,100,54,32,0.00,40.00,2,1,5,0.01
2013-3-30,41.0,33.9,25.0,31.0,21.5,-99.9,100,72,49,0.00,40.00,2,1,6,0.01
2013-3-31,43.0,34.3,23.0,26.0,20.0,16.0,82,57,36,0.00,40.00,2,1,7,0.00
2013-4-1,40.0,30.7,21.0,26.0,16.9,12.0,90,59,31,0.00,40.00,2,-27,5,0.00
2013-4-2,49.0,36.1,24.0,22.0,17.2,11.0,67,48,30,0.00,40.00,1,1,5,0.00
2013-4-3,47.0,38.5,29.0,27.0,21.0,14.0,85,50,36,0.00,40.00,1,1,5,0.00
2013-4-4,53.0,42.9,28.0,30.0,24.4,20.0,83,50,29,0.00,40.00,2,-71,7,0.00
2013-4-5,47.0,39.9,30.0,35.0,29.3,23.0,100,69,47,0.00,40.00,2,1,5,0.00
2013-4-6,46.0,35.6,28.0,32.0,27.9,21.0,97,76,44,0.00,40.00,2,1,8,0.01
2013-4-7,44.0,36.0,29.0,30.0,25.2,21.0,95,67,43,0.00,40.00,2,1,6,0.00
2013-4-8,31.0,18.5,9.0,27.0,15.6,6.0,99,89,71,0.00,40.00,1,0,5,0.00
2013-4-9,17.0,10.3,2.0,11.0,6.7,-1.0,89,84,77,0.00,40.00,1,0,4,0.01
2013-4-10,34.0,23.6,7.0,27.0,16.3,5.0,92,75,55,0.00,40.00,1,0,5,0.01
2013-4-11,38.0,30.8,26.0,31.0,26.5,21.0,99,85,61,0.00,40.00,2,-26,6,0.01
2013-4-12,34.0,26.3,19.0,25.0,19.8,12.0,94,78,40,0.00,40.00,2,1,6,0.00
2013-4-13,42.0,33.1,24.0,29.0,22.1,13.0,98,66,45,0.00,40.00,2,1,7,0.01
2013-4-14,26.0,18.4,7.0,20.0,12.4,5.0,92,78,61,0.00,40.00,2,1,6,0.00
2013-4-15,17.0,10.4,-1.0,11.0,6.0,-3.0,89,82,70,0.00,40.00,1,1,4,0.00
2013-4-16,15.0,9.5,5.0,11.0,5.9,1.0,91,84,77,0.00,40.00,1,0,4,0.01
2013-4-17,16.0,9.1,1.0,10.0,5.3,-2.0,91,84,74,0.00,40.00,2,0,6,0.01
2013-4-18,32.0,19.3,-1.0,16.0,6.8,-4.0,87,60,37,0.00,40.00,2,1,6,0.01
2013-4-19,38.0,30.3,20.0,23.0,18.8,13.0,80,63,44,0.00,40.00,2,1,6,0.01
2013-4-20,47.0,34.3,28.0,31.0,24.8,19.0,94,70,43,0.00,40.00,2,1,7,0.01
2013-4-21,37.0,28.0,16.0,29.0,23.8,15.0,98,86,56,0.00,40.00,1,0,4,0.01
2013-4-22,18.0,12.5,2.0,16.0,9.4,-1.0,96,87,77,0.00,40.00,1,-41,3,0.04
2013-4-23,31.0,18.2,-1.0,20.0,9.7,-4.0,88,70,56,0.00,40.00,1,1,5,0.01
2013-4-24,36.0,31.5,28.0,18.0,15.9,14.0,64,52,48,0.00,40.00,2,2,8,0.00
2013-4-25,50.0,41.1,30.0,18.0,9.3,-99.9,55,31,20,0.00,40.00,3,-24,7,0.00
2013-4-26,55.0,43.3,29.0,24.0,17.3,12.0,62,38,22,0.00,40.00,2,1,8,0.00
2013-4-27,58.0,46.9,35.0,24.0,20.0,15.0,55,36,20,0.00,40.00,2,1,7,0.00
2013-4-28,46.0,39.0,32.0,38.0,30.0,22.0,95,72,38,0.00,40.00,1,0,5,0.00
2013-4-29,52.0,42.0,29.0,34.0,25.4,19.0,100,55,30,0.00,40.00,2,1,9,0.01
2013-4-30,26.0,22.8,19.0,26.0,21.3,18.0,100,94,85,0.00,40.00,1,-80,6,0.02
2013-5-1,28.0,20.5,14.0,21.0,16.5,10.0,97,84,66,0.00,40.00,1,0,4,0.01
2013-5-2,44.0,28.6,13.0,23.0,17.2,10.0,92,65,41,0.00,40.00,1,1,4,0.01
2013-5-3,49.0,38.2,28.0,33.0,22.0,15.0,96,55,27,0.00,40.00,2,1,4,0.00
2013-5-4,40.0,34.2,32.0,36.0,22.6,-99.9,100,88,84,0.00,40.00,1,-77,4,0.01
2013-5-5,46.0,37.0,26.0,31.0,26.8,23.0,100,69,49,0.00,40.00,1,1,5,0.00
2013-5-6,55.0,45.0,30.0,32.0,27.2,24.0,84,53,34,0.00,40.00,2,-32,5,0.00
2013-5-7,60.0,45.2,33.0,32.0,27.7,25.0,74,54,29,0.00,40.00,2,1,7,0.00
2013-5-8,53.0,44.0,34.0,34.0,29.8,25.0,79,59,35,0.00,40.00,2,1,8,0.00
2013-5-9,52.0,42.2,33.0,38.0,30.4,26.0,82,65,38,0.00,40.00,2,-68,5,0.00
2013-5-10,54.0,41.1,32.0,37.0,19.4,-99.9,88,61,34,0.00,40.00,2,-42,6,0.00
2013-5-11,54.0,41.4,30.0,37.0,24.4,-99.9,97,63,33,0.00,40.00,1,1,5,0.00
2013-5-12,67.0,53.9,42.0,37.0,32.3,29.0,68,46,26,0.00,40.00,2,1,8,0.01
2013-5-13,73.0,60.4,47.0,41.0,31.8,26.0,60,36,20,0.00,40.00,2,1,6,0.00
2013-5-14,70.0,57.9,41.0,45.0,36.2,27.0,85,48,22,0.00,40.00,3,1,12,0.00
2013-5-15,63.0,48.9,34.0,39.0,36.5,32.0,94,66,36,0.00,40.00,2,0,9,0.00
2013-5-16,55.0,47.9,42.0,45.0,31.9,-99.9,94,72,55,0.00,40.00,1,1,6,0.00
2013-5-17,54.0,43.8,36.0,48.0,37.6,-99.9,100,90,66,0.00,40.00,1,1,4,0.00
2013-5-18,50.0,41.3,34.0,46.0,40.3,34.0,100,96,84,0.00,40.00,1,1,5,0.01
2013-5-19,41.0,38.7,36.0,41.0,38.7,36.0,100,100,100,0.00,40.00,1,0,5,0.05
2013-5-20,39.0,35.3,32.0,37.0,34.1,31.0,100,96,81,0.00,40.00,1,1,6,0.04
2013-5-21,48.0,40.3,33.0,36.0,27.0,-99.9,100,77,61,0.00,40.00,2,-80,5,0.02
2013-5-22,54.0,43.7,31.0,44.0,37.4,29.0,100,80,52,0.00,40.00,1,1,5,0.00
2013-5-23,67.0,54.4,41.0,42.0,35.2,26.0,100,53,21,0.00,40.00,3,2,7,0.01
2013-5-24,60.0,49.0,38.0,43.0,32.1,13.0,100,61,16,0.00,40.00,2,1,6,0.00
2013-5-25,68.0,52.4,34.0,38.0,25.3,17.0,94,44,15,0.00,40.00,2,1,7,0.00
2013-5-26,62.0,48.6,38.0,48.0,41.6,34.0,100,78,55,0.00,40.00,2,1,6,0.00
2013-5-27,57.0,45.2,36.0,45.0,35.5,25.0,97,72,36,0.00,40.00,3,1,9,0.01
2013-5-28,55.0,44.2,35.0,43.0,35.3,29.0,100,73,44,0.00,40.00,2,1,6,0.00
2013-5-29,44.0,41.2,38.0,44.0,41.2,38.0,100,100,100,0.00,40.00,1,0,3,0.02
2013-5-30,41.0,38.3,35.0,40.0,37.4,34.0,100,97,90,0.00,40.00,2,1,7,0.01
2013-5-31,42.0,37.5,34.0,35.0,33.0,30.0,100,84,73,0.00,40.00,2,1,7,0.00
2013-6-1,48.0,39.0,31.0,41.0,36.3,31.0,100,90,75,0.00,40.00,1,0,4,0.02
2013-6-2,64.0,51.5,37.0,47.0,39.6,32.0,99,67,30,0.00,40.00,2,1,7,0.00
2013-6-3,53.0,46.2,38.0,42.0,32.6,26.0,100,62,36,0.00,40.00,3,2,9,0.00
2013-6-4,40.0,34.0,30.0,36.0,32.4,26.0,100,94,74,0.00,40.00,1,1,6,0.00
2013-6-5,51.0,40.4,28.0,42.0,36.2,28.0,100,86,70,0.00,40.00,1,0,5,0.01
2013-6-6,60.0,49.8,38.0,43.0,38.9,32.0,91,68,46,0.00,40.00,2,-20,5,0.00
2013-6-7,69.0,54.6,41.0,51.0,40.1,36.0,89,61,33,0.00,40.00,2,1,7,0.00
2013-6-8,58.0,47.5,41.0,46.0,41.8,39.0,100,83,51,0.00,40.00,2,1,7,0.02
2013-6-9,73.0,58.5,40.0,44.0,33.8,28.0,82,46,20,0.00,40.00,2,1,8,0.01
2013-6-10,74.0,59.9,48.0,50.0,43.8,34.0,89,58,37,0.00,40.00,2,0,8,0.01
2013-6-11,74.0,55.1,44.0,59.0,49.4,43.0,100,84,44,0.00,40.00,2,1,6,0.00
2013-6-12,70.0,53.2,43.0,53.0,47.3,38.0,100,85,32,0.00,40.00,3,1,7,0.01
2013-6-13,74.0,57.0,45.0,55.0,47.2,38.0,100,76,28,0.00,40.00,2,1,12,0.01
2013-6-14,59.0,48.7,37.0,51.0,35.0,23.0,100,66,29,0.00,40.00,3,1,7,0.00
2013-6-15,65.0,47.5,31.0,40.0,28.9,10.0,89,57,12,0.00,40.00,2,1,6,0.01
2013-6-16,66.0,53.3,40.0,45.0,36.6,27.0,86,55,35,0.00,40.00,2,-69,5,0.01
2013-6-17,63.0,53.8,45.0,51.0,46.0,39.0,97,76,54,0.00,40.00,1,1,5,0.00
2013-6-18,72.0,56.9,46.0,49.0,38.7,29.0,99,55,25,0.00,40.00,2,1,7,0.00
2013-6-19,79.0,65.8,49.0,46.0,22.0,-99.9,68,28,10,0.00,40.00,2,-43,10,0.01
2013-6-20,65.0,53.6,42.0,40.0,19.7,12.0,70,31,13,0.00,40.00,4,1,10,0.00
2013-6-22,51.0,45.3,40.0,47.0,43.9,40.0,100,94,85,0.00,40.00,1,1,5,0.00
2013-6-23,61.0,49.7,34.0,47.0,37.3,31.0,100,67,33,0.00,40.00,3,1,11,0.03
2013-6-24,75.0,60.4,44.0,40.0,32.9,24.0,86,41,16,0.00,40.00,2,1,7,0.01
2013-6-25,67.0,58.0,49.0,48.0,37.0,29.0,94,49,29,0.00,40.00,2,1,7,0.01
2013-6-26,70.0,59.9,49.0,48.0,41.1,35.0,76,52,34,0.00,40.00,2,1,7,0.00
2013-6-27,76.0,61.2,46.0,53.0,46.5,37.0,92,62,25,0.00,40.00,2,1,11,0.01
2013-6-28,74.0,63.1,50.0,52.0,48.4,45.0,92,61,41,0.00,40.00,2,-28,5,0.01
2013-6-29,72.0,62.5,51.0,55.0,49.5,43.0,79,63,50,0.00,40.00,1,1,5,0.00
2013-6-30,73.0,62.8,52.0,54.0,50.5,46.0,91,66,46,0.00,40.00,2,0,6,0.00
2013-7-1,72.0,60.2,50.0,53.0,47.9,43.0,84,66,44,0.00,40.00,2,1,5,0.00
2013-7-2,75.0,61.3,47.0,51.0,45.9,43.0,92,62,36,0.00,40.00,2,1,5,0.00
2013-7-3,77.0,66.0,53.0,56.0,46.9,31.0,79,52,36,0.00,40.00,2,1,6,0.00
2013-7-4,71.0,60.5,52.0,61.0,51.8,38.0,100,75,53,0.00,40.00,1,1,5,0.00
2013-7-5,64.0,57.1,50.0,58.0,43.8,-99.9,100,83,71,0.00,40.00,1,-64,4,0.00
2013-7-6,67.0,56.6,50.0,57.0,48.4,41.0,99,75,49,0.00,40.00,1,-36,10,0.01
2013-7-7,76.0,62.4,51.0,51.0,45.3,34.0,98,59,22,0.00,40.00,2,1,8,0.01
2013-7-8,78.0,60.8,51.0,48.0,33.9,-99.9,88,52,27,0.00,40.00,2,-70,6,0.00
2013-7-9,67.0,56.1,46.0,51.0,46.0,40.0,92,71,50,0.00,40.00,2,1,5,0.00
2013-7-10,75.0,58.5,50.0,52.0,41.0,-99.9,94,59,34,0.00,40.00,2,-96,7,0.00
2013-7-11,85.0,67.7,54.0,47.0,40.3,31.0,69,40,16,0.00,40.00,2,-25,5,0.00
2013-7-12,69.0,59.9,53.0,53.0,45.7,37.0,94,63,32,0.00,40.00,1,0,4,0.00
2013-7-13,76.0,63.9,53.0,52.0,38.7,28.0,91,44,19,0.00,40.00,2,-114,6,0.01
2013-7-14,72.0,60.4,49.0,54.0,49.8,46.0,99,72,48,0.00,40.00,1,-108,5,0.01
2013-7-15,78.0,62.9,54.0,48.0,43.5,35.0,75,52,24,0.00,40.00,2,-124,6,0.01
2013-7-16,73.0,58.4,52.0,61.0,49.0,34.0,97,73,43,0.00,40.00,1,1,4,0.00
2013-7-17,75.0,63.0,51.0,58.0,51.6,47.0,96,69,49,0.00,40.00,2,-34,5,0.01
2013-7-18,73.0,66.9,55.0,55.0,50.2,45.0,81,56,44,0.00,40.00,2,-25,5,0.01
2013-7-19,77.0,63.8,51.0,54.0,46.7,41.0,92,59,33,0.00,40.00,1,1,6,0.00
2013-7-20,72.0,62.4,52.0,48.0,45.0,43.0,73,55,38,0.00,40.00,1,1,5,0.00
2013-7-21,75.0,63.2,51.0,50.0,39.7,31.0,73,46,26,0.00,40.00,2,-50,5,0.00
2013-7-22,82.0,65.3,50.0,43.0,35.0,22.0,62,37,11,0.00,40.00,2,1,8,0.01
2013-7-23,73.0,61.9,51.0,50.0,40.7,37.0,80,49,28,0.00,40.00,2,1,5,0.00
2013-7-24,73.0,61.7,47.0,51.0,43.7,34.0,77,54,24,0.00,40.00,1,1,5,0.00
2013-7-25,68.0,56.2,49.0,55.0,47.5,36.0,98,74,53,0.00,40.00,2,0,6,0.00
2013-7-26,70.0,59.4,46.0,57.0,47.9,43.0,94,67,50,0.00,40.00,1,-26,4,0.69
2013-7-27,68.0,57.5,52.0,53.0,44.2,36.0,100,63,39,0.00,40.00,1,-68,4,0.67
2013-7-28,63.0,55.2,49.0,56.0,45.8,42.0,89,71,48,0.00,40.00,1,1,5,0.01
2013-7-29,58.0,52.4,47.0,54.0,48.3,43.0,99,86,66,0.00,40.00,1,1,4,0.01
2013-7-30,68.0,56.8,48.0,51.0,44.5,34.0,100,66,33,0.00,40.00,2,-31,8,0.01
2013-7-31,69.0,58.7,44.0,55.0,47.9,44.0,100,71,44,0.00,40.00,1,1,6,0.02
2013-8-1,71.0,61.2,49.0,51.0,45.9,41.0,83,59,40,0.00,40.00,1,1,6,0.01
2013-8-2,72.0,60.6,48.0,54.0,43.9,27.0,99,62,20,0.00,40.00,2,-49,7,0.00
2013-8-3,69.0,58.4,45.0,59.0,52.2,43.0,97,81,52,0.00,40.00,1,0,4,0.00
2013-8-4,78.0,62.8,48.0,56.0,46.8,32.0,100,65,19,0.00,40.00,2,1,10,0.01
2013-8-5,78.0,59.6,47.0,52.0,43.9,32.0,99,65,19,0.00,40.00,2,-124,6,0.00
2013-8-6,64.0,56.3,44.0,50.0,44.6,39.0,98,67,49,0.00,40.00,2,1,5,0.00
2013-8-7,71.0,57.3,45.0,52.0,44.6,41.0,88,65,41,0.00,40.00,1,1,6,0.00
2013-8-8,66.0,54.5,46.0,51.0,46.7,40.0,99,77,48,0.00,40.00,2,1,6,0.00
2013-8-9,59.0,50.8,45.0,54.0,49.8,45.0,100,96,71,0.00,40.00,1,-44,3,0.00
2013-8-10,69.0,58.5,47.0,53.0,46.7,39.0,100,67,38,0.00,40.00,1,1,5,0.02
2013-8-11,71.0,57.0,46.0,48.0,40.2,35.0,78,56,34,0.00,40.00,1,-53,5,0.01
2013-8-12,70.0,57.9,50.0,51.0,33.9,-99.9,67,50,33,0.00,40.00,1,-43,6,0.00
2013-8-13,62.0,52.1,45.0,53.0,43.1,36.0,97,73,48,0.00,40.00,2,1,4,0.00
2013-8-14,65.0,53.5,44.0,49.0,42.6,39.0,90,69,43,0.00,40.00,2,-32,4,0.02
2013-8-15,74.0,58.6,46.0,43.0,35.4,-99.9,75,48,31,0.00,40.00,1,-31,5,0.01
2013-8-16,82.0,67.9,53.0,43.0,27.6,-99.9,61,28,13,0.00,40.00,1,1,4,0.01
2013-8-17,81.0,66.2,59.0,44.0,29.1,-99.9,55,30,14,0.00,40.00,2,1,5,0.01
2013-8-18,78.0,64.4,53.0,49.0,40.9,35.0,68,44,24,0.00,40.00,2,1,6,0.00
2013-8-19,76.0,60.2,52.0,46.0,34.9,-99.9,66,47,28,0.00,40.00,2,1,7,0.00
2013-8-20,76.0,65.6,57.0,45.0,38.2,34.0,51,38,26,0.00,40.00,1,-73,6,0.00
2013-8-21,68.0,60.8,54.0,47.0,41.9,38.0,64,51,34,0.00,40.00,1,0,4,0.00
2013-8-22,73.0,63.3,54.0,53.0,48.7,43.0,76,61,34,0.00,40.00,1,0,5,0.00
2013-8-23,74.0,67.4,57.0,49.0,45.6,40.0,68,47,29,0.00,40.00,1,1,5,0.00
2013-8-24,67.0,55.5,50.0,58.0,48.2,-99.9,100,84,58,0.00,40.00,1,0,8,0.00
2013-8-25,73.0,61.2,53.0,49.0,43.8,39.0,73,55,31,0.00,40.00,2,1,4,0.00
2013-8-26,72.0,65.3,57.0,45.0,42.3,40.0,57,44,33,0.00,40.00,1,1,5,0.01
2013-8-27,72.0,62.2,56.0,52.0,45.2,43.0,64,54,38,0.00,40.00,1,0,5,0.00
2013-8-28,78.0,72.1,62.0,50.0,44.4,40.0,49,38,27,0.00,40.00,2,1,9,0.01
2013-8-29,75.0,64.1,53.0,48.0,43.6,40.0,76,49,35,0.00,40.00,1,-62,5,0.00
2013-8-30,79.0,66.8,52.0,52.0,37.9,28.0,69,40,16,0.00,40.00,2,1,7,0.00
2013-8-31,66.0,54.9,48.0,45.0,37.0,-99.9,77,56,41,0.00,40.00,2,1,4,0.01
2013-9-1,76.0,59.5,45.0,48.0,38.5,32.0,77,50,25,0.00,40.00,1,1,5,0.00
2013-9-2,77.0,65.4,52.0,51.0,39.9,30.0,69,43,20,0.00,40.00,1,1,5,0.01
2013-9-3,71.0,59.5,54.0,54.0,50.1,48.0,85,72,53,0.00,40.00,1,-71,3,0.00
2013-9-4,73.0,65.8,54.0,54.0,50.8,46.0,90,60,41,0.00,40.00,1,1,5,0.00
2013-9-5,80.0,66.9,55.0,55.0,46.6,38.0,76,51,24,0.00,40.00,1,1,6,0.01
2013-9-6,78.0,64.8,55.0,49.0,44.1,41.0,72,49,27,0.00,40.00,1,1,5,0.00
2013-9-7,73.0,61.5,52.0,55.0,46.3,-99.9,87,62,41,0.00,40.00,2,1,6,0.00
2013-9-8,63.0,54.5,47.0,59.0,51.9,47.0,100,92,73,0.00,40.00,2,-52,5,0.00
2013-9-9,57.0,48.0,40.0,52.0,43.7,40.0,100,86,64,0.00,40.00,1,0,4,0.00
2013-9-10,61.0,49.8,40.0,46.0,42.4,38.0,94,77,54,0.00,40.00,1,0,4,0.00
2013-9-11,64.0,56.8,44.0,45.0,40.8,35.0,75,56,43,0.00,40.00,1,-76,4,0.00
2013-9-12,65.0,51.5,41.0,49.0,42.7,38.0,91,74,49,0.00,40.00,2,1,5,0.00
2013-9-13,61.0,52.9,47.0,55.0,48.8,44.0,100,87,63,0.00,40.00,1,0,3,0.01
2013-9-14,56.0,47.5,43.0,53.0,44.6,-99.9,100,96,89,0.00,40.00,1,0,5,0.08
2013-9-15,54.0,49.8,44.0,54.0,49.4,44.0,100,98,94,0.00,40.00,1,-55,3,0.09
2013-9-16,68.0,53.2,44.0,50.0,45.8,40.0,100,78,53,0.00,40.00,1,1,4,0.01
2013-9-17,72.0,56.6,46.0,49.0,43.1,37.0,100,66,31,0.00,40.00,2,1,8,0.01
2013-9-18,47.0,42.5,35.0,46.0,39.5,31.0,100,89,72,0.00,40.00,2,1,6,0.01
2013-9-21,69.0,59.6,52.0,29.0,20.0,-99.9,33,23,19,0.00,40.00,2,2,6,0.01
2013-9-22,64.0,55.0,43.0,38.0,33.8,20.0,73,46,29,0.00,40.00,2,-53,6,0.01
2013-9-23,52.0,43.0,35.0,42.0,36.8,29.0,100,81,41,0.00,40.00,1,0,5,0.00
2013-9-24,62.0,51.6,36.0,34.0,26.6,24.0,81,41,24,0.00,40.00,3,1,8,0.01
2013-9-25,49.0,40.8,35.0,39.0,34.6,30.0,100,81,49,0.00,40.00,1,0,5,0.00
2013-9-26,36.0,32.7,28.0,36.0,32.6,28.0,100,100,99,0.00,40.00,1,0,5,0.03
2013-9-27,34.0,28.8,26.0,32.0,28.3,25.0,100,98,89,0.00,40.00,0,-59,3,0.02
2013-9-28,44.0,35.2,27.0,33.0,26.1,-99.9,95,76,60,0.00,40.00,3,2,9,0.01
2013-9-29,53.0,46.8,43.0,34.0,30.3,27.0,60,53,45,0.00,40.00,3,2,10,0.01
2013-9-30,55.0,46.9,39.0,42.0,36.2,31.0,100,68,54,0.00,40.00,4,-116,11,0.01
2013-10-1,52.0,40.7,36.0,32.0,28.2,22.0,81,64,31,0.00,40.00,2,0,5,0.00
2013-10-2,43.0,36.4,29.0,35.0,31.8,29.0,100,84,58,0.00,40.00,1,0,4,0.01
2013-10-3,34.0,30.9,26.0,34.0,30.9,26.0,100,100,99,0.00,40.00,0,0,3,0.03
2013-10-4,25.0,22.4,20.0,24.0,22.0,20.0,100,98,96,0.00,40.00,0,-45,0,0.07
2013-10-5,42.0,24.7,14.0,33.0,22.5,12.0,100,92,69,0.00,40.00,1,0,3,0.01
2013-10-6,55.0,38.6,29.0,39.0,31.1,18.0,100,79,34,0.00,40.00,1,-66,4,0.01
2013-10-7,66.0,51.5,39.0,23.0,15.8,9.0,47,27,11,0.00,40.00,2,1,6,0.00
2013-10-8,49.0,40.2,33.0,33.0,14.1,-99.9,87,55,46,0.00,40.00,1,-103,4,0.00
2013-10-9,44.0,36.5,30.0,35.0,32.1,29.0,100,84,65,0.00,40.00,1,0,4,0.00
2013-10-10,50.0,40.9,30.0,38.0,31.5,29.0,99,72,48,0.00,40.00,1,1,6,0.00
2013-10-11,36.0,31.4,25.0,33.0,26.2,20.0,100,82,63,0.00,40.00,2,1,6,0.00
2013-10-12,40.0,27.9,21.0,27.0,18.7,-99.9,91,75,42,0.00,40.00,1,0,4,0.01
2013-10-13,43.0,36.4,30.0,34.0,28.5,22.0,100,75,54,0.00,40.00,1,-90,3,0.00
2013-10-14,32.0,26.5,20.0,32.0,26.2,20.0,100,99,95,0.00,40.00,1,0,4,0.02
2013-10-15,34.0,25.9,20.0,28.0,21.7,15.0,99,86,53,0.00,40.00,1,-69,3,0.01
2013-10-16,41.0,26.4,17.0,26.0,18.2,9.0,94,73,44,0.00,40.00,2,-153,3,0.00
2013-10-17,28.0,24.5,15.0,26.0,21.9,15.0,96,89,81,0.00,40.00,1,0,3,0.00
2013-10-18,33.0,28.2,20.0,22.0,19.2,16.0,99,71,50,0.00,40.00,2,1,6,0.01
2013-10-19,44.0,33.7,27.0,28.0,16.4,-99.9,81,56,43,0.00,40.00,1,1,6,0.00
2013-10-20,32.0,30.0,28.0,29.0,26.1,23.0,100,85,73,0.00,40.00,1,1,5,0.00
2013-10-21,39.0,36.6,32.0,32.0,29.4,26.0,83,75,65,0.00,40.00,1,1,5,0.01
2013-10-22,51.0,41.4,34.0,32.0,26.6,21.0,80,58,37,0.00,40.00,2,-90,6,0.00
2013-10-23,44.0,33.6,29.0,33.0,28.0,23.0,93,79,62,0.00,40.00,1,1,3,0.00
2013-10-24,46.0,37.4,30.0,33.0,28.3,24.0,78,70,57,0.00,40.00,1,1,3,0.00
2013-10-25,39.0,36.3,34.0,29.0,22.7,19.0,80,58,47,0.00,40.00,1,1,3,0.00
2013-10-26,54.0,40.4,33.0,25.0,13.1,-99.9,63,40,25,0.00,40.00,1,1,4,0.00
2013-10-27,47.0,38.7,29.0,26.0,24.0,21.0,86,59,36,0.00,40.00,1,0,5,0.00
2013-10-28,29.0,25.4,22.0,29.0,25.2,22.0,100,99,96,0.00,40.00,1,0,2,0.00
2013-10-29,28.0,22.9,19.0,27.0,21.9,18.0,98,96,90,0.00,40.00,1,0,5,0.00
2013-10-30,35.0,29.2,21.0,27.0,25.2,21.0,99,85,72,0.00,40.00,1,0,3,0.00
2013-10-31,38.0,32.8,29.0,30.0,25.6,22.0,90,75,64,0.00,40.00,2,1,7,0.00
2013-11-1,34.0,28.0,24.0,23.0,19.3,16.0,93,70,47,0.00,40.00,2,1,6,0.00
2013-11-2,51.0,41.6,28.0,17.0,-9.1,-99.9,62,22,13,0.00,40.00,2,-104,9,0.01
2013-11-3,40.0,29.4,17.0,28.0,20.9,11.0,97,77,31,0.00,40.00,2,0,5,0.00
2013-11-4,23.0,15.8,8.0,18.0,12.5,5.0,95,86,64,0.00,40.00,1,0,4,0.01
2013-11-5,23.0,16.0,5.0,12.0,7.2,2.0,91,70,51,0.00,40.00,2,1,7,0.00
2013-11-6,29.0,24.4,19.0,19.0,16.0,11.0,81,71,58,0.00,40.00,1,1,6,0.01
2013-11-7,39.0,32.8,25.0,26.0,22.8,17.0,73,66,57,0.00,40.00,2,1,6,0.00
2013-11-8,38.0,32.6,29.0,26.0,18.8,13.0,79,57,40,0.00,40.00,2,-124,9,0.00
2013-11-12,54.0,43.2,28.0,23.0,12.6,5.0,81,32,15,0.00,40.00,2,1,5,0.00
2013-11-13,47.0,42.8,39.0,27.0,23.5,19.0,58,46,39,0.00,40.00,1,-166,6,0.00
2013-11-14,35.0,30.8,27.0,19.0,14.5,11.0,57,51,36,0.00,40.00,1,0,5,0.00
2013-11-15,33.0,29.6,26.0,15.0,12.0,9.0,51,47,42,0.00,40.00,1,1,5,0.00
2013-11-16,31.0,25.8,24.0,22.0,9.9,-99.9,92,60,42,0.00,40.00,2,1,9,0.00
2013-11-17,24.0,22.0,21.0,20.0,13.7,9.0,96,71,58,0.00,40.00,2,1,8,0.00
2013-11-18,45.0,37.2,30.0,13.0,11.1,10.0,47,34,24,0.00,40.00,2,2,7,0.01
2013-11-19,43.0,38.3,34.0,24.0,19.9,13.0,64,48,33,0.00,40.00,2,-70,6,0.00
2013-11-20,34.0,23.6,10.0,23.0,15.6,6.0,91,73,58,0.00,40.00,2,1,5,0.00
2013-11-21,20.0,12.9,8.0,11.0,5.1,0.0,90,72,52,0.00,40.00,1,-125,3,0.01
2013-11-22,25.0,16.2,10.0,5.0,0.1,-9.0,68,50,32,0.00,40.00,1,0,3,0.01
2013-11-23,39.0,27.7,17.0,15.0,2.9,-99.9,60,40,23,0.00,40.00,2,1,3,0.01
2013-11-24,42.0,33.2,26.0,20.0,8.5,-5.0,59,39,14,0.00,40.00,1,0,4,0.00
2013-11-25,31.0,27.9,25.0,18.0,16.6,13.0,68,62,57,0.00,40.00,1,0,3,0.00
2013-11-26,38.0,32.8,30.0,23.0,16.6,10.0,61,51,43,0.00,40.00,1,1,4,0.00
2013-11-27,44.0,33.5,24.0,19.0,16.5,13.0,80,52,33,0.00,40.00,1,-66,6,0.00
2013-11-28,45.0,36.2,23.0,18.0,15.5,13.0,77,45,31,0.00,40.00,2,1,4,0.00
2013-11-29,44.0,36.4,28.0,19.0,15.6,14.0,61,44,32,0.00,40.00,1,1,5,0.00
2013-11-30,35.0,30.1,28.0,22.0,14.8,-99.9,69,59,53,0.00,40.00,1,1,4,0.00
2013-12-1,36.0,31.5,29.0,22.0,21.3,20.0,72,65,56,0.00,40.00,2,2,8,0.00
2013-12-2,38.0,32.6,24.0,29.0,26.0,23.0,99,77,63,0.00,40.00,2,1,8,0.00
2013-12-3,4.0,-3.7,-11.0,-1.0,-7.7,-15.0,87,82,81,0.00,40.00,0,0,2,0.00
2013-12-4,-4.0,-9.8,-15.0,-10.0,-14.8,-20.0,81,79,77,0.00,40.00,0,0,2,0.00
2013-12-5,-1.0,-12.9,-20.0,-7.0,-17.9,-25.0,80,77,74,0.00,40.00,1,0,3,0.00
2013-12-6,-6.0,-17.4,-27.0,-11.0,-22.9,-33.0,77,75,72,0.00,40.00,0,0,2,0.01
2013-12-7,5.0,-4.8,-17.0,0.0,-14.9,-99.9,86,76,78,0.00,40.00,0,0,2,0.01
2013-12-8,2.0,-4.4,-9.0,-5.0,-9.5,-15.0,85,78,71,0.00,40.00,1,0,3,0.00
2013-12-9,14.0,7.8,-9.0,8.0,1.1,-15.0,81,74,68,0.00,40.00,2,1,8,0.01
2013-12-10,19.0,11.4,2.0,10.0,4.2,-1.0,87,72,64,0.00,40.00,2,1,8,0.01
2013-12-11,27.0,18.3,6.0,8.0,0.2,-4.0,75,46,32,0.00,40.00,2,1,7,0.00
2013-12-12,43.0,33.2,27.0,17.0,12.5,8.0,53,42,32,0.00,40.00,2,1,6,0.01
2013-12-13,27.0,24.2,22.0,19.0,16.1,11.0,80,71,50,0.00,40.00,1,0,4,0.00
2013-12-14,30.0,24.9,21.0,18.0,5.6,-99.9,71,57,57,0.00,40.00,2,1,5,0.00
2013-12-15,41.0,37.2,33.0,14.0,11.2,9.0,46,34,29,0.00,40.00,2,2,6,0.00
2013-12-16,36.0,32.3,31.0,16.0,14.3,13.0,52,47,40,0.00,40.00,3,1,10,0.00
2013-12-17,43.0,39.2,31.0,17.0,13.5,10.0,54,36,27,0.00,40.00,3,2,12,0.00
2013-12-18,44.0,37.1,24.0,18.0,13.0,9.0,66,38,27,0.00,40.00,2,1,6,0.00
2013-12-19,22.0,12.7,4.0,16.0,9.6,2.0,99,87,70,0.00,40.00,1,0,3,0.00
2013-12-20,20.0,12.2,2.0,8.0,1.5,-6.0,87,64,32,0.00,40.00,2,1,4,0.00
2013-12-21,22.0,16.7,12.0,16.0,8.6,-99.9,94,77,60,0.00,40.00,1,-25,5,0.01
2013-12-22,14.0,11.5,9.0,10.0,7.0,4.0,89,83,73,0.00,40.00,1,0,5,0.00
2013-12-23,34.0,24.3,7.0,24.0,17.9,4.0,90,77,67,0.00,40.00,2,1,8,0.02
2013-12-24,25.0,19.2,13.0,23.0,16.6,11.0,98,89,80,0.00,40.00,1,0,6,0.00
2013-12-25,33.0,21.8,12.0,15.0,10.0,4.0,88,65,33,0.00,40.00,2,1,6,0.01
2013-12-26,38.0,32.7,26.0,24.0,19.6,14.0,64,58,46,0.00,40.00,2,1,6,0.01
2013-12-27,49.0,39.2,33.0,25.0,16.8,6.0,61,44,22,0.00,40.00,1,1,5,0.00
2013-12-28,32.0,20.4,14.0,19.0,2.9,-99.9,96,65,37,0.00,40.00,1,0,7,0.00
2013-12-29,26.0,20.2,9.0,11.0,7.2,4.0,79,58,39,0.00,40.00,2,1,8,0.00
2013-12-30,27.0,25.5,25.0,20.0,15.2,11.0,78,65,54,0.00,40.00,2,1,6,0.00
2013-12-31,31.0,28.7,23.0,22.0,19.7,18.0,98,70,63,0.00,40.00,2,1,6,0.00
2014-1-1,21.0,17.6,13.0,20.0,15.4,10.0,98,91,77,0.00,40.00,1,0,4,0.00
2014-1-2,32.0,20.4,11.0,22.0,15.3,9.0,95,81,67,0.00,40.00,2,1,6,0.01